sensor_id;sensor_type;location;lat;lon;timestamp;P1;durP1;ratioP1;P2;durP2;ratioP2
21326;SDS011;10822;51.532;6.770;2022-08-03T00:00:04;8.73;;;3.50;;
21326;SDS011;10822;51.532;6.770;2022-08-03T00:02:30;5.40;;;3.60;;
21326;SDS011;10822;51.532;6.770;2022-08-03T00:04:56;6.32;;;3.17;;
21326;SDS011;10822;51.532;6.770;2022-08-03T00:07:22;7.85;;;3.78;;
21326;SDS011;10822;51.532;6.770;2022-08-03T00:09:48;5.20;;;3.25;;
21326;SDS011;10822;51.532;6.770;2022-08-03T00:12:14;8.70;;;3.45;;
21326;SDS011;10822;51.532;6.770;2022-08-03T00:14:40;3.97;;;3.05;;
21326;SDS011;10822;51.532;6.770;2022-08-03T00:17:06;5.53;;;3.40;;
21326;SDS011;10822;51.532;6.770;2022-08-03T00:19:32;6.95;;;3.20;;
21326;SDS011;10822;51.532;6.770;2022-08-03T00:21:58;5.70;;;3.22;;
21326;SDS011;10822;51.532;6.770;2022-08-03T00:24:24;6.07;;;3.10;;
21326;SDS011;10822;51.532;6.770;2022-08-03T00:26:50;6.30;;;3.80;;
21326;SDS011;10822;51.532;6.770;2022-08-03T00:29:16;6.60;;;3.20;;
21326;SDS011;10822;51.532;6.770;2022-08-03T00:31:42;5.68;;;3.28;;
21326;SDS011;10822;51.532;6.770;2022-08-03T00:34:08;5.63;;;3.33;;
21326;SDS011;10822;51.532;6.770;2022-08-03T00:36:34;5.28;;;3.30;;
21326;SDS011;10822;51.532;6.770;2022-08-03T00:39:00;7.68;;;3.47;;
21326;SDS011;10822;51.532;6.770;2022-08-03T00:41:26;5.57;;;3.30;;
21326;SDS011;10822;51.532;6.770;2022-08-03T00:43:52;5.10;;;3.00;;
21326;SDS011;10822;51.532;6.770;2022-08-03T00:46:18;5.70;;;3.10;;
21326;SDS011;10822;51.532;6.770;2022-08-03T00:48:46;6.65;;;3.63;;
21326;SDS011;10822;51.532;6.770;2022-08-03T00:51:12;6.05;;;3.30;;
21326;SDS011;10822;51.532;6.770;2022-08-03T00:53:38;4.75;;;3.13;;
21326;SDS011;10822;51.532;6.770;2022-08-03T00:56:04;5.95;;;2.95;;
21326;SDS011;10822;51.532;6.770;2022-08-03T00:58:30;5.03;;;3.20;;
21326;SDS011;10822;51.532;6.770;2022-08-03T01:00:56;5.88;;;2.80;;
21326;SDS011;10822;51.532;6.770;2022-08-03T01:03:22;4.57;;;3.10;;
21326;SDS011;10822;51.532;6.770;2022-08-03T01:05:51;4.88;;;3.13;;
21326;SDS011;10822;51.532;6.770;2022-08-03T01:10:56;7.70;;;3.05;;
21326;SDS011;10822;51.532;6.770;2022-08-03T01:16:11;5.40;;;3.35;;
21326;SDS011;10822;51.532;6.770;2022-08-03T01:18:54;7.95;;;3.75;;
21326;SDS011;10822;51.532;6.770;2022-08-03T01:21:25;6.65;;;3.47;;
21326;SDS011;10822;51.532;6.770;2022-08-03T01:29:06;5.68;;;3.30;;
21326;SDS011;10822;51.532;6.770;2022-08-03T01:31:42;5.15;;;3.42;;
21326;SDS011;10822;51.532;6.770;2022-08-03T01:34:09;8.07;;;3.45;;
21326;SDS011;10822;51.532;6.770;2022-08-03T01:36:38;4.05;;;3.13;;
21326;SDS011;10822;51.532;6.770;2022-08-03T01:39:05;5.47;;;3.35;;
21326;SDS011;10822;51.532;6.770;2022-08-03T01:41:57;6.68;;;3.20;;
21326;SDS011;10822;51.532;6.770;2022-08-03T01:44:23;4.10;;;3.30;;
21326;SDS011;10822;51.532;6.770;2022-08-03T01:46:49;6.97;;;3.20;;
21326;SDS011;10822;51.532;6.770;2022-08-03T01:49:16;5.43;;;3.55;;
21326;SDS011;10822;51.532;6.770;2022-08-03T01:51:43;5.97;;;3.05;;
21326;SDS011;10822;51.532;6.770;2022-08-03T01:54:10;6.22;;;3.10;;
21326;SDS011;10822;51.532;6.770;2022-08-03T01:56:37;4.13;;;2.80;;
21326;SDS011;10822;51.532;6.770;2022-08-03T01:59:03;4.72;;;3.17;;
21326;SDS011;10822;51.532;6.770;2022-08-03T02:01:31;3.95;;;3.20;;
21326;SDS011;10822;51.532;6.770;2022-08-03T02:03:58;7.72;;;3.58;;
21326;SDS011;10822;51.532;6.770;2022-08-03T02:06:25;4.95;;;3.13;;
21326;SDS011;10822;51.532;6.770;2022-08-03T02:08:51;7.13;;;3.38;;
21326;SDS011;10822;51.532;6.770;2022-08-03T02:11:19;4.07;;;3.00;;
21326;SDS011;10822;51.532;6.770;2022-08-03T02:13:45;7.25;;;3.47;;
21326;SDS011;10822;51.532;6.770;2022-08-03T02:16:12;3.92;;;3.20;;
21326;SDS011;10822;51.532;6.770;2022-08-03T02:18:39;6.78;;;3.20;;
21326;SDS011;10822;51.532;6.770;2022-08-03T02:21:06;9.13;;;3.33;;
21326;SDS011;10822;51.532;6.770;2022-08-03T02:23:32;7.32;;;3.08;;
21326;SDS011;10822;51.532;6.770;2022-08-03T02:25:59;4.90;;;3.30;;
21326;SDS011;10822;51.532;6.770;2022-08-03T02:28:36;7.57;;;3.38;;
21326;SDS011;10822;51.532;6.770;2022-08-03T02:31:04;4.55;;;3.13;;
21326;SDS011;10822;51.532;6.770;2022-08-03T02:33:35;5.20;;;3.08;;
21326;SDS011;10822;51.532;6.770;2022-08-03T02:36:02;5.28;;;3.40;;
21326;SDS011;10822;51.532;6.770;2022-08-03T02:38:32;5.43;;;3.30;;
21326;SDS011;10822;51.532;6.770;2022-08-03T02:40:59;5.22;;;3.63;;
21326;SDS011;10822;51.532;6.770;2022-08-03T02:43:26;5.45;;;3.15;;
21326;SDS011;10822;51.532;6.770;2022-08-03T02:45:54;6.78;;;3.33;;
21326;SDS011;10822;51.532;6.770;2022-08-03T02:48:21;4.70;;;3.38;;
21326;SDS011;10822;51.532;6.770;2022-08-03T02:50:48;4.80;;;3.20;;
21326;SDS011;10822;51.532;6.770;2022-08-03T02:53:16;5.25;;;3.15;;
21326;SDS011;10822;51.532;6.770;2022-08-03T02:55:43;4.78;;;3.40;;
21326;SDS011;10822;51.532;6.770;2022-08-03T02:58:11;5.15;;;3.35;;
21326;SDS011;10822;51.532;6.770;2022-08-03T03:00:37;4.88;;;3.10;;
21326;SDS011;10822;51.532;6.770;2022-08-03T03:03:04;4.22;;;3.10;;
21326;SDS011;10822;51.532;6.770;2022-08-03T03:05:31;8.38;;;3.38;;
21326;SDS011;10822;51.532;6.770;2022-08-03T03:07:57;5.55;;;3.30;;
21326;SDS011;10822;51.532;6.770;2022-08-03T03:10:23;5.95;;;3.45;;
21326;SDS011;10822;51.532;6.770;2022-08-03T03:12:52;4.68;;;3.42;;
21326;SDS011;10822;51.532;6.770;2022-08-03T03:15:20;7.78;;;3.35;;
21326;SDS011;10822;51.532;6.770;2022-08-03T03:17:47;5.55;;;3.38;;
21326;SDS011;10822;51.532;6.770;2022-08-03T03:20:14;6.75;;;3.60;;
21326;SDS011;10822;51.532;6.770;2022-08-03T03:22:40;5.80;;;3.20;;
21326;SDS011;10822;51.532;6.770;2022-08-03T03:25:06;5.88;;;3.33;;
21326;SDS011;10822;51.532;6.770;2022-08-03T03:27:32;5.55;;;3.30;;
21326;SDS011;10822;51.532;6.770;2022-08-03T03:29:58;6.63;;;3.20;;
21326;SDS011;10822;51.532;6.770;2022-08-03T03:32:25;6.78;;;3.33;;
21326;SDS011;10822;51.532;6.770;2022-08-03T03:34:52;6.53;;;3.30;;
21326;SDS011;10822;51.532;6.770;2022-08-03T03:37:19;5.10;;;3.35;;
21326;SDS011;10822;51.532;6.770;2022-08-03T03:39:45;5.25;;;2.92;;
21326;SDS011;10822;51.532;6.770;2022-08-03T03:42:11;6.15;;;3.30;;
21326;SDS011;10822;51.532;6.770;2022-08-03T03:44:37;6.43;;;3.25;;
21326;SDS011;10822;51.532;6.770;2022-08-03T03:47:03;4.22;;;3.47;;
21326;SDS011;10822;51.532;6.770;2022-08-03T03:49:29;5.85;;;3.50;;
21326;SDS011;10822;51.532;6.770;2022-08-03T03:51:55;7.53;;;3.47;;
21326;SDS011;10822;51.532;6.770;2022-08-03T03:54:21;8.32;;;4.13;;
21326;SDS011;10822;51.532;6.770;2022-08-03T03:56:47;8.13;;;3.83;;
21326;SDS011;10822;51.532;6.770;2022-08-03T03:59:13;5.53;;;3.58;;
21326;SDS011;10822;51.532;6.770;2022-08-03T04:01:39;5.43;;;3.80;;
21326;SDS011;10822;51.532;6.770;2022-08-03T04:04:06;6.35;;;3.42;;
21326;SDS011;10822;51.532;6.770;2022-08-03T04:06:50;6.43;;;4.10;;
21326;SDS011;10822;51.532;6.770;2022-08-03T04:09:35;6.43;;;3.60;;
21326;SDS011;10822;51.532;6.770;2022-08-03T04:12:21;5.60;;;3.70;;
21326;SDS011;10822;51.532;6.770;2022-08-03T04:14:47;9.10;;;3.80;;
21326;SDS011;10822;51.532;6.770;2022-08-03T04:17:14;5.95;;;4.13;;
21326;SDS011;10822;51.532;6.770;2022-08-03T04:19:51;3.95;;;3.30;;
21326;SDS011;10822;51.532;6.770;2022-08-03T04:22:19;7.03;;;3.97;;
21326;SDS011;10822;51.532;6.770;2022-08-03T04:24:51;5.97;;;3.63;;
21326;SDS011;10822;51.532;6.770;2022-08-03T04:27:19;7.10;;;3.42;;
21326;SDS011;10822;51.532;6.770;2022-08-03T04:29:46;5.05;;;3.58;;
21326;SDS011;10822;51.532;6.770;2022-08-03T04:32:14;5.50;;;3.67;;
21326;SDS011;10822;51.532;6.770;2022-08-03T04:34:40;7.45;;;4.10;;
21326;SDS011;10822;51.532;6.770;2022-08-03T04:37:09;6.90;;;3.92;;
21326;SDS011;10822;51.532;6.770;2022-08-03T04:39:35;6.35;;;3.88;;
21326;SDS011;10822;51.532;6.770;2022-08-03T04:42:05;7.30;;;4.00;;
21326;SDS011;10822;51.532;6.770;2022-08-03T04:44:34;5.45;;;4.00;;
21326;SDS011;10822;51.532;6.770;2022-08-03T04:47:01;6.72;;;4.47;;
21326;SDS011;10822;51.532;6.770;2022-08-03T04:49:27;8.57;;;4.72;;
21326;SDS011;10822;51.532;6.770;2022-08-03T04:51:53;6.80;;;3.90;;
21326;SDS011;10822;51.532;6.770;2022-08-03T04:54:19;5.60;;;4.20;;
21326;SDS011;10822;51.532;6.770;2022-08-03T04:56:45;6.55;;;4.55;;
21326;SDS011;10822;51.532;6.770;2022-08-03T04:59:11;8.85;;;4.90;;
21326;SDS011;10822;51.532;6.770;2022-08-03T05:01:40;7.13;;;4.68;;
21326;SDS011;10822;51.532;6.770;2022-08-03T05:04:06;9.60;;;4.70;;
21326;SDS011;10822;51.532;6.770;2022-08-03T05:06:32;8.35;;;4.40;;
21326;SDS011;10822;51.532;6.770;2022-08-03T05:08:58;9.00;;;4.85;;
21326;SDS011;10822;51.532;6.770;2022-08-03T05:11:24;8.73;;;4.60;;
21326;SDS011;10822;51.532;6.770;2022-08-03T05:13:50;10.10;;;4.80;;
21326;SDS011;10822;51.532;6.770;2022-08-03T05:16:16;9.57;;;4.82;;
21326;SDS011;10822;51.532;6.770;2022-08-03T05:18:42;7.05;;;4.32;;
21326;SDS011;10822;51.532;6.770;2022-08-03T05:21:09;8.82;;;5.38;;
21326;SDS011;10822;51.532;6.770;2022-08-03T05:23:38;9.32;;;4.68;;
21326;SDS011;10822;51.532;6.770;2022-08-03T05:26:04;8.95;;;5.13;;
21326;SDS011;10822;51.532;6.770;2022-08-03T05:28:30;10.70;;;4.50;;
21326;SDS011;10822;51.532;6.770;2022-08-03T05:30:56;7.50;;;4.28;;
21326;SDS011;10822;51.532;6.770;2022-08-03T05:33:22;6.85;;;4.45;;
21326;SDS011;10822;51.532;6.770;2022-08-03T05:35:47;10.40;;;4.82;;
21326;SDS011;10822;51.532;6.770;2022-08-03T05:38:13;9.30;;;4.97;;
21326;SDS011;10822;51.532;6.770;2022-08-03T05:40:39;11.27;;;5.22;;
21326;SDS011;10822;51.532;6.770;2022-08-03T05:43:05;9.32;;;4.72;;
21326;SDS011;10822;51.532;6.770;2022-08-03T05:45:31;8.32;;;5.07;;
21326;SDS011;10822;51.532;6.770;2022-08-03T05:47:57;8.68;;;5.07;;
21326;SDS011;10822;51.532;6.770;2022-08-03T05:50:23;10.52;;;5.30;;
21326;SDS011;10822;51.532;6.770;2022-08-03T05:52:49;9.90;;;5.35;;
21326;SDS011;10822;51.532;6.770;2022-08-03T05:55:15;10.27;;;5.45;;
21326;SDS011;10822;51.532;6.770;2022-08-03T05:57:41;10.23;;;5.40;;
21326;SDS011;10822;51.532;6.770;2022-08-03T06:00:09;9.85;;;5.57;;
21326;SDS011;10822;51.532;6.770;2022-08-03T06:02:36;9.55;;;5.35;;
21326;SDS011;10822;51.532;6.770;2022-08-03T06:05:02;9.35;;;5.10;;
21326;SDS011;10822;51.532;6.770;2022-08-03T06:07:28;11.65;;;5.10;;
21326;SDS011;10822;51.532;6.770;2022-08-03T06:09:54;7.60;;;4.63;;
21326;SDS011;10822;51.532;6.770;2022-08-03T06:12:20;6.93;;;4.45;;
21326;SDS011;10822;51.532;6.770;2022-08-03T06:14:46;8.38;;;4.97;;
21326;SDS011;10822;51.532;6.770;2022-08-03T06:17:12;14.23;;;5.38;;
21326;SDS011;10822;51.532;6.770;2022-08-03T06:19:38;11.77;;;6.18;;
21326;SDS011;10822;51.532;6.770;2022-08-03T06:22:04;11.00;;;5.55;;
21326;SDS011;10822;51.532;6.770;2022-08-03T06:24:30;15.75;;;5.68;;
21326;SDS011;10822;51.532;6.770;2022-08-03T06:26:56;15.60;;;5.93;;
21326;SDS011;10822;51.532;6.770;2022-08-03T06:29:22;13.13;;;5.50;;
21326;SDS011;10822;51.532;6.770;2022-08-03T06:31:48;12.50;;;5.55;;
21326;SDS011;10822;51.532;6.770;2022-08-03T06:34:14;11.80;;;5.97;;
21326;SDS011;10822;51.532;6.770;2022-08-03T06:36:40;19.52;;;5.85;;
21326;SDS011;10822;51.532;6.770;2022-08-03T06:39:06;13.15;;;6.05;;
21326;SDS011;10822;51.532;6.770;2022-08-03T06:41:33;10.93;;;5.45;;
21326;SDS011;10822;51.532;6.770;2022-08-03T06:43:59;10.63;;;5.15;;
21326;SDS011;10822;51.532;6.770;2022-08-03T06:46:25;13.23;;;5.78;;
21326;SDS011;10822;51.532;6.770;2022-08-03T06:48:51;14.32;;;5.80;;
21326;SDS011;10822;51.532;6.770;2022-08-03T06:51:17;16.63;;;6.40;;
21326;SDS011;10822;51.532;6.770;2022-08-03T06:53:42;13.52;;;5.57;;
21326;SDS011;10822;51.532;6.770;2022-08-03T06:56:08;12.18;;;5.63;;
21326;SDS011;10822;51.532;6.770;2022-08-03T06:58:35;17.30;;;6.18;;
21326;SDS011;10822;51.532;6.770;2022-08-03T07:01:01;17.92;;;6.07;;
21326;SDS011;10822;51.532;6.770;2022-08-03T07:03:27;14.38;;;6.25;;
21326;SDS011;10822;51.532;6.770;2022-08-03T07:05:53;13.18;;;5.82;;
21326;SDS011;10822;51.532;6.770;2022-08-03T07:08:19;14.60;;;6.50;;
21326;SDS011;10822;51.532;6.770;2022-08-03T07:10:45;13.50;;;6.55;;
21326;SDS011;10822;51.532;6.770;2022-08-03T07:13:11;15.20;;;6.78;;
21326;SDS011;10822;51.532;6.770;2022-08-03T07:15:37;14.65;;;5.97;;
21326;SDS011;10822;51.532;6.770;2022-08-03T07:18:04;15.88;;;6.35;;
21326;SDS011;10822;51.532;6.770;2022-08-03T07:20:30;15.43;;;6.43;;
21326;SDS011;10822;51.532;6.770;2022-08-03T07:22:57;17.30;;;6.22;;
21326;SDS011;10822;51.532;6.770;2022-08-03T07:25:23;17.27;;;5.60;;
21326;SDS011;10822;51.532;6.770;2022-08-03T07:27:49;15.25;;;5.18;;
21326;SDS011;10822;51.532;6.770;2022-08-03T07:30:15;14.07;;;5.00;;
21326;SDS011;10822;51.532;6.770;2022-08-03T07:32:41;16.63;;;4.90;;
21326;SDS011;10822;51.532;6.770;2022-08-03T07:35:08;19.02;;;4.57;;
21326;SDS011;10822;51.532;6.770;2022-08-03T07:37:35;10.70;;;4.30;;
21326;SDS011;10822;51.532;6.770;2022-08-03T07:40:01;11.63;;;4.68;;
21326;SDS011;10822;51.532;6.770;2022-08-03T07:42:28;13.10;;;4.40;;
21326;SDS011;10822;51.532;6.770;2022-08-03T07:44:54;9.90;;;3.67;;
21326;SDS011;10822;51.532;6.770;2022-08-03T07:47:21;11.00;;;3.50;;
21326;SDS011;10822;51.532;6.770;2022-08-03T07:49:47;13.32;;;3.85;;
21326;SDS011;10822;51.532;6.770;2022-08-03T07:52:13;10.20;;;3.63;;
21326;SDS011;10822;51.532;6.770;2022-08-03T07:54:58;12.43;;;4.00;;
21326;SDS011;10822;51.532;6.770;2022-08-03T07:57:24;11.90;;;3.67;;
21326;SDS011;10822;51.532;6.770;2022-08-03T07:59:50;8.32;;;3.17;;
21326;SDS011;10822;51.532;6.770;2022-08-03T08:02:16;8.65;;;3.08;;
21326;SDS011;10822;51.532;6.770;2022-08-03T08:04:42;10.90;;;2.75;;
21326;SDS011;10822;51.532;6.770;2022-08-03T08:07:08;7.72;;;2.78;;
21326;SDS011;10822;51.532;6.770;2022-08-03T08:09:35;5.82;;;2.30;;
21326;SDS011;10822;51.532;6.770;2022-08-03T08:12:01;8.40;;;2.30;;
21326;SDS011;10822;51.532;6.770;2022-08-03T08:14:27;7.93;;;2.63;;
21326;SDS011;10822;51.532;6.770;2022-08-03T08:16:53;7.22;;;2.58;;
21326;SDS011;10822;51.532;6.770;2022-08-03T08:19:19;8.98;;;2.15;;
21326;SDS011;10822;51.532;6.770;2022-08-03T08:21:45;9.32;;;2.35;;
21326;SDS011;10822;51.532;6.770;2022-08-03T08:24:11;7.20;;;1.90;;
21326;SDS011;10822;51.532;6.770;2022-08-03T08:26:37;7.22;;;1.90;;
21326;SDS011;10822;51.532;6.770;2022-08-03T08:29:03;5.15;;;1.92;;
21326;SDS011;10822;51.532;6.770;2022-08-03T08:31:30;7.28;;;1.88;;
21326;SDS011;10822;51.532;6.770;2022-08-03T08:33:56;5.50;;;2.13;;
21326;SDS011;10822;51.532;6.770;2022-08-03T08:36:22;7.60;;;2.13;;
21326;SDS011;10822;51.532;6.770;2022-08-03T08:38:48;5.32;;;1.88;;
21326;SDS011;10822;51.532;6.770;2022-08-03T08:41:14;9.05;;;2.10;;
21326;SDS011;10822;51.532;6.770;2022-08-03T08:43:41;6.85;;;1.90;;
21326;SDS011;10822;51.532;6.770;2022-08-03T08:46:10;4.43;;;2.13;;
21326;SDS011;10822;51.532;6.770;2022-08-03T08:48:38;5.90;;;2.00;;
21326;SDS011;10822;51.532;6.770;2022-08-03T08:51:05;7.63;;;1.92;;
21326;SDS011;10822;51.532;6.770;2022-08-03T08:53:31;5.88;;;1.88;;
21326;SDS011;10822;51.532;6.770;2022-08-03T08:56:00;5.18;;;1.92;;
21326;SDS011;10822;51.532;6.770;2022-08-03T08:58:33;4.78;;;2.08;;
21326;SDS011;10822;51.532;6.770;2022-08-03T09:01:02;5.70;;;2.00;;
21326;SDS011;10822;51.532;6.770;2022-08-03T09:03:28;7.70;;;2.20;;
21326;SDS011;10822;51.532;6.770;2022-08-03T09:05:54;5.72;;;2.08;;
21326;SDS011;10822;51.532;6.770;2022-08-03T09:08:20;7.40;;;2.47;;
21326;SDS011;10822;51.532;6.770;2022-08-03T09:10:47;7.13;;;1.98;;
21326;SDS011;10822;51.532;6.770;2022-08-03T09:13:13;7.10;;;2.00;;
21326;SDS011;10822;51.532;6.770;2022-08-03T09:15:39;5.90;;;2.03;;
21326;SDS011;10822;51.532;6.770;2022-08-03T09:18:06;7.80;;;2.15;;
21326;SDS011;10822;51.532;6.770;2022-08-03T09:20:33;5.50;;;1.70;;
21326;SDS011;10822;51.532;6.770;2022-08-03T09:25:30;4.75;;;1.92;;
21326;SDS011;10822;51.532;6.770;2022-08-03T09:28:03;7.85;;;2.33;;
21326;SDS011;10822;51.532;6.770;2022-08-03T09:30:29;6.07;;;1.70;;
21326;SDS011;10822;51.532;6.770;2022-08-03T09:33:05;5.20;;;1.60;;
21326;SDS011;10822;51.532;6.770;2022-08-03T09:35:31;8.38;;;1.92;;
21326;SDS011;10822;51.532;6.770;2022-08-03T09:38:10;5.70;;;1.92;;
21326;SDS011;10822;51.532;6.770;2022-08-03T09:40:36;8.48;;;2.35;;
21326;SDS011;10822;51.532;6.770;2022-08-03T09:43:03;6.75;;;2.10;;
21326;SDS011;10822;51.532;6.770;2022-08-03T09:45:32;6.35;;;1.85;;
21326;SDS011;10822;51.532;6.770;2022-08-03T09:47:58;4.57;;;1.52;;
21326;SDS011;10822;51.532;6.770;2022-08-03T09:50:51;5.18;;;1.70;;
21326;SDS011;10822;51.532;6.770;2022-08-03T09:53:17;7.85;;;1.58;;
21326;SDS011;10822;51.532;6.770;2022-08-03T09:55:59;3.72;;;1.77;;
21326;SDS011;10822;51.532;6.770;2022-08-03T09:58:26;3.95;;;1.50;;
21326;SDS011;10822;51.532;6.770;2022-08-03T10:01:03;4.38;;;1.40;;
21326;SDS011;10822;51.532;6.770;2022-08-03T10:03:33;5.07;;;1.45;;
21326;SDS011;10822;51.532;6.770;2022-08-03T10:06:12;2.83;;;1.48;;
21326;SDS011;10822;51.532;6.770;2022-08-03T10:08:39;3.75;;;1.60;;
21326;SDS011;10822;51.532;6.770;2022-08-03T10:11:05;2.72;;;1.30;;
21326;SDS011;10822;51.532;6.770;2022-08-03T10:13:30;2.90;;;1.40;;
21326;SDS011;10822;51.532;6.770;2022-08-03T10:15:57;5.13;;;1.60;;
21326;SDS011;10822;51.532;6.770;2022-08-03T10:18:23;4.80;;;1.30;;
21326;SDS011;10822;51.532;6.770;2022-08-03T10:20:50;6.60;;;1.40;;
21326;SDS011;10822;51.532;6.770;2022-08-03T10:23:17;5.13;;;1.35;;
21326;SDS011;10822;51.532;6.770;2022-08-03T10:25:48;5.32;;;1.52;;
21326;SDS011;10822;51.532;6.770;2022-08-03T10:28:15;5.80;;;1.40;;
21326;SDS011;10822;51.532;6.770;2022-08-03T10:30:43;2.47;;;1.33;;
21326;SDS011;10822;51.532;6.770;2022-08-03T10:33:26;3.88;;;1.42;;
21326;SDS011;10822;51.532;6.770;2022-08-03T10:35:56;3.25;;;1.35;;
21326;SDS011;10822;51.532;6.770;2022-08-03T10:38:28;5.18;;;1.35;;
21326;SDS011;10822;51.532;6.770;2022-08-03T10:40:54;3.67;;;1.60;;
21326;SDS011;10822;51.532;6.770;2022-08-03T10:43:21;5.38;;;1.77;;
21326;SDS011;10822;51.532;6.770;2022-08-03T10:45:50;5.28;;;1.45;;
21326;SDS011;10822;51.532;6.770;2022-08-03T10:48:16;6.55;;;1.48;;
21326;SDS011;10822;51.532;6.770;2022-08-03T10:50:43;4.65;;;1.27;;
21326;SDS011;10822;51.532;6.770;2022-08-03T10:53:09;5.50;;;1.30;;
21326;SDS011;10822;51.532;6.770;2022-08-03T10:55:39;6.57;;;1.85;;
21326;SDS011;10822;51.532;6.770;2022-08-03T11:00:57;5.13;;;1.25;;
21326;SDS011;10822;51.532;6.770;2022-08-03T11:03:23;4.50;;;1.60;;
21326;SDS011;10822;51.532;6.770;2022-08-03T11:05:49;3.30;;;1.25;;
21326;SDS011;10822;51.532;6.770;2022-08-03T11:10:43;4.55;;;1.20;;
21326;SDS011;10822;51.532;6.770;2022-08-03T11:13:09;2.88;;;1.10;;
21326;SDS011;10822;51.532;6.770;2022-08-03T11:15:37;3.97;;;1.35;;
21326;SDS011;10822;51.532;6.770;2022-08-03T11:18:09;3.13;;;1.30;;
21326;SDS011;10822;51.532;6.770;2022-08-03T11:20:42;5.32;;;1.50;;
21326;SDS011;10822;51.532;6.770;2022-08-03T11:23:09;4.35;;;1.27;;
21326;SDS011;10822;51.532;6.770;2022-08-03T11:28:23;3.67;;;1.10;;
21326;SDS011;10822;51.532;6.770;2022-08-03T11:30:50;2.75;;;1.25;;
21326;SDS011;10822;51.532;6.770;2022-08-03T11:33:29;6.75;;;1.33;;
21326;SDS011;10822;51.532;6.770;2022-08-03T11:35:59;3.33;;;1.25;;
21326;SDS011;10822;51.532;6.770;2022-08-03T11:38:25;4.93;;;1.70;;
21326;SDS011;10822;51.532;6.770;2022-08-03T11:40:51;6.80;;;1.60;;
21326;SDS011;10822;51.532;6.770;2022-08-03T11:46:00;5.32;;;1.30;;
21326;SDS011;10822;51.532;6.770;2022-08-03T11:48:27;8.18;;;1.60;;
21326;SDS011;10822;51.532;6.770;2022-08-03T11:51:01;4.72;;;1.60;;
21326;SDS011;10822;51.532;6.770;2022-08-03T11:53:28;6.68;;;1.23;;
21326;SDS011;10822;51.532;6.770;2022-08-03T11:55:57;4.35;;;1.33;;
21326;SDS011;10822;51.532;6.770;2022-08-03T11:58:23;5.28;;;1.40;;
21326;SDS011;10822;51.532;6.770;2022-08-03T12:00:49;4.65;;;1.30;;
21326;SDS011;10822;51.532;6.770;2022-08-03T12:03:16;4.03;;;1.20;;
21326;SDS011;10822;51.532;6.770;2022-08-03T12:08:09;6.07;;;1.30;;
21326;SDS011;10822;51.532;6.770;2022-08-03T12:10:35;3.53;;;1.30;;
21326;SDS011;10822;51.532;6.770;2022-08-03T12:13:02;4.97;;;1.10;;
21326;SDS011;10822;51.532;6.770;2022-08-03T12:15:35;5.22;;;1.25;;
21326;SDS011;10822;51.532;6.770;2022-08-03T12:18:02;3.65;;;1.10;;
21326;SDS011;10822;51.532;6.770;2022-08-03T12:20:30;3.92;;;1.17;;
21326;SDS011;10822;51.532;6.770;2022-08-03T12:23:06;3.63;;;1.33;;
21326;SDS011;10822;51.532;6.770;2022-08-03T12:25:33;3.80;;;1.25;;
21326;SDS011;10822;51.532;6.770;2022-08-03T12:28:07;3.08;;;1.30;;
21326;SDS011;10822;51.532;6.770;2022-08-03T12:30:33;4.25;;;1.15;;
21326;SDS011;10822;51.532;6.770;2022-08-03T12:33:10;5.30;;;1.30;;
21326;SDS011;10822;51.532;6.770;2022-08-03T12:35:36;4.43;;;1.23;;
21326;SDS011;10822;51.532;6.770;2022-08-03T12:38:02;4.05;;;1.20;;
21326;SDS011;10822;51.532;6.770;2022-08-03T12:40:28;3.60;;;0.90;;
21326;SDS011;10822;51.532;6.770;2022-08-03T12:42:54;6.05;;;1.20;;
21326;SDS011;10822;51.532;6.770;2022-08-03T12:45:24;4.57;;;1.20;;
21326;SDS011;10822;51.532;6.770;2022-08-03T12:47:57;2.63;;;0.85;;
21326;SDS011;10822;51.532;6.770;2022-08-03T12:50:31;2.92;;;1.10;;
21326;SDS011;10822;51.532;6.770;2022-08-03T12:52:57;5.03;;;1.20;;
21326;SDS011;10822;51.532;6.770;2022-08-03T12:55:24;3.53;;;1.10;;
21326;SDS011;10822;51.532;6.770;2022-08-03T12:58:00;2.83;;;1.08;;
21326;SDS011;10822;51.532;6.770;2022-08-03T13:00:26;4.35;;;1.08;;
21326;SDS011;10822;51.532;6.770;2022-08-03T13:03:12;2.17;;;0.90;;
21326;SDS011;10822;51.532;6.770;2022-08-03T13:05:44;2.38;;;1.30;;
21326;SDS011;10822;51.532;6.770;2022-08-03T13:08:17;4.70;;;1.10;;
21326;SDS011;10822;51.532;6.770;2022-08-03T13:10:43;3.15;;;1.20;;
21326;SDS011;10822;51.532;6.770;2022-08-03T13:13:10;3.47;;;1.38;;
21326;SDS011;10822;51.532;6.770;2022-08-03T13:15:36;3.35;;;1.23;;
21326;SDS011;10822;51.532;6.770;2022-08-03T13:18:02;3.80;;;1.10;;
21326;SDS011;10822;51.532;6.770;2022-08-03T13:20:28;3.88;;;0.95;;
21326;SDS011;10822;51.532;6.770;2022-08-03T13:22:54;3.47;;;1.20;;
21326;SDS011;10822;51.532;6.770;2022-08-03T13:25:20;3.95;;;1.08;;
21326;SDS011;10822;51.532;6.770;2022-08-03T13:27:46;5.47;;;1.00;;
21326;SDS011;10822;51.532;6.770;2022-08-03T13:30:13;2.75;;;1.23;;
21326;SDS011;10822;51.532;6.770;2022-08-03T13:32:39;2.60;;;0.85;;
21326;SDS011;10822;51.532;6.770;2022-08-03T13:35:06;2.40;;;0.88;;
21326;SDS011;10822;51.532;6.770;2022-08-03T13:37:32;3.88;;;1.17;;
21326;SDS011;10822;51.532;6.770;2022-08-03T13:39:58;1.15;;;0.73;;
21326;SDS011;10822;51.532;6.770;2022-08-03T13:42:25;3.42;;;1.00;;
21326;SDS011;10822;51.532;6.770;2022-08-03T13:44:51;3.03;;;1.13;;
21326;SDS011;10822;51.532;6.770;2022-08-03T13:47:17;5.97;;;1.08;;
21326;SDS011;10822;51.532;6.770;2022-08-03T13:49:43;5.10;;;1.10;;
21326;SDS011;10822;51.532;6.770;2022-08-03T13:52:09;4.43;;;1.20;;
21326;SDS011;10822;51.532;6.770;2022-08-03T13:54:34;5.57;;;1.20;;
21326;SDS011;10822;51.532;6.770;2022-08-03T13:57:00;4.43;;;0.90;;
21326;SDS011;10822;51.532;6.770;2022-08-03T13:59:26;3.00;;;1.00;;
21326;SDS011;10822;51.532;6.770;2022-08-03T14:01:52;3.83;;;1.15;;
21326;SDS011;10822;51.532;6.770;2022-08-03T14:04:19;3.28;;;0.90;;
21326;SDS011;10822;51.532;6.770;2022-08-03T14:06:45;3.05;;;1.27;;
21326;SDS011;10822;51.532;6.770;2022-08-03T14:09:11;3.75;;;1.17;;
21326;SDS011;10822;51.532;6.770;2022-08-03T14:11:38;3.13;;;1.23;;
21326;SDS011;10822;51.532;6.770;2022-08-03T14:14:04;4.20;;;1.40;;
21326;SDS011;10822;51.532;6.770;2022-08-03T14:16:30;2.25;;;0.90;;
21326;SDS011;10822;51.532;6.770;2022-08-03T14:18:56;4.72;;;0.90;;
21326;SDS011;10822;51.532;6.770;2022-08-03T14:21:22;3.88;;;1.40;;
21326;SDS011;10822;51.532;6.770;2022-08-03T14:23:48;3.63;;;0.90;;
21326;SDS011;10822;51.532;6.770;2022-08-03T14:26:14;3.10;;;0.88;;
21326;SDS011;10822;51.532;6.770;2022-08-03T14:28:42;3.10;;;0.90;;
21326;SDS011;10822;51.532;6.770;2022-08-03T14:31:08;3.13;;;0.90;;
21326;SDS011;10822;51.532;6.770;2022-08-03T14:33:34;5.43;;;0.80;;
21326;SDS011;10822;51.532;6.770;2022-08-03T14:36:00;3.90;;;1.20;;
21326;SDS011;10822;51.532;6.770;2022-08-03T14:38:26;3.65;;;1.17;;
21326;SDS011;10822;51.532;6.770;2022-08-03T14:40:52;3.38;;;1.15;;
21326;SDS011;10822;51.532;6.770;2022-08-03T14:43:18;3.83;;;1.10;;
21326;SDS011;10822;51.532;6.770;2022-08-03T14:45:45;5.05;;;0.98;;
21326;SDS011;10822;51.532;6.770;2022-08-03T14:48:11;4.05;;;1.27;;
21326;SDS011;10822;51.532;6.770;2022-08-03T14:50:37;6.40;;;1.88;;
21326;SDS011;10822;51.532;6.770;2022-08-03T14:53:03;3.78;;;1.20;;
21326;SDS011;10822;51.532;6.770;2022-08-03T14:55:29;4.07;;;1.27;;
21326;SDS011;10822;51.532;6.770;2022-08-03T14:57:56;2.97;;;0.80;;
21326;SDS011;10822;51.532;6.770;2022-08-03T15:00:22;2.25;;;0.80;;
21326;SDS011;10822;51.532;6.770;2022-08-03T15:02:48;3.95;;;1.23;;
21326;SDS011;10822;51.532;6.770;2022-08-03T15:05:14;5.07;;;1.75;;
21326;SDS011;10822;51.532;6.770;2022-08-03T15:07:40;4.80;;;1.23;;
21326;SDS011;10822;51.532;6.770;2022-08-03T15:10:06;3.28;;;1.20;;
21326;SDS011;10822;51.532;6.770;2022-08-03T15:12:32;4.18;;;1.00;;